createdAt,value
2019-03-19T00:01:09.078Z,78.90
2019-03-19T00:03:37.148Z,78.70
2019-03-19T00:06:05.058Z,77.60
2019-03-19T00:08:33.008Z,77.70
2019-03-19T00:11:01.003Z,77.60
2019-03-19T00:13:28.919Z,78.30
2019-03-19T00:15:56.816Z,79.70
2019-03-19T00:18:24.753Z,81.90
2019-03-19T00:20:52.727Z,82.20
2019-03-19T00:23:20.696Z,81.40
2019-03-19T00:25:48.717Z,80.30
2019-03-19T00:28:16.569Z,80.70
2019-03-19T00:30:44.481Z,81.40
2019-03-19T00:33:12.448Z,82.50
2019-03-19T00:35:40.490Z,83.20
2019-03-19T00:38:08.433Z,84.50
2019-03-19T00:40:36.374Z,85.30
2019-03-19T00:43:04.330Z,85.80
2019-03-19T00:45:32.254Z,85.50
2019-03-19T00:48:00.176Z,85.90
2019-03-19T00:50:28.106Z,86.50
2019-03-19T00:52:56.120Z,87.00
2019-03-19T00:55:24.063Z,88.60
2019-03-19T00:57:51.967Z,87.40
2019-03-19T01:00:20.869Z,87.60
2019-03-19T01:02:49.165Z,87.50
2019-03-19T01:05:17.209Z,88.80
2019-03-19T01:07:45.092Z,88.40
2019-03-19T01:10:13.117Z,89.10
2019-03-19T01:12:41.242Z,89.30
2019-03-19T01:15:09.831Z,89.70
2019-03-19T01:17:37.770Z,89.00
2019-03-19T01:20:07.857Z,89.30
2019-03-19T01:22:35.874Z,88.80
2019-03-19T01:25:05.066Z,88.80
2019-03-19T01:27:33.090Z,89.80
2019-03-19T01:30:01.139Z,90.50
2019-03-19T01:32:29.064Z,90.50
2019-03-19T01:34:57.058Z,90.70
2019-03-19T01:37:25.092Z,90.30
2019-03-19T01:39:53.027Z,90.70
2019-03-19T01:42:21.067Z,91.20
2019-03-19T01:44:49.084Z,91.20
2019-03-19T01:47:17.049Z,91.60
2019-03-19T01:49:45.104Z,91.70
2019-03-19T01:52:13.375Z,91.50
2019-03-19T01:54:42.381Z,91.70
2019-03-19T01:57:10.300Z,91.20
2019-03-19T01:59:38.396Z,91.30
2019-03-19T02:02:07.000Z,91.50
2019-03-19T02:04:35.065Z,91.20
2019-03-19T02:07:04.226Z,91.50
2019-03-19T02:09:32.225Z,91.20
2019-03-19T02:12:00.166Z,91.50
2019-03-19T02:14:28.109Z,91.40
2019-03-19T02:16:56.190Z,91.90
2019-03-19T02:19:24.175Z,92.10
2019-03-19T02:21:52.155Z,92.40
2019-03-19T02:24:20.009Z,92.70
2019-03-19T02:26:47.929Z,92.50
2019-03-19T02:29:15.850Z,92.60
2019-03-19T02:31:43.836Z,92.50
2019-03-19T02:34:11.774Z,92.80
2019-03-19T02:36:39.759Z,92.90
2019-03-19T02:39:07.879Z,92.90
2019-03-19T02:41:35.962Z,92.90
2019-03-19T02:44:04.922Z,92.60
2019-03-19T02:46:32.903Z,92.30
2019-03-19T02:49:00.922Z,92.50
2019-03-19T02:51:29.153Z,92.60
2019-03-19T02:53:57.158Z,92.70
2019-03-19T02:56:32.674Z,92.80
2019-03-19T02:58:55.191Z,92.80
2019-03-19T03:01:23.167Z,93.00
2019-03-19T03:03:51.166Z,93.10
2019-03-19T03:06:19.123Z,93.20
2019-03-19T03:08:47.253Z,93.40
2019-03-19T03:11:15.404Z,93.20
2019-03-19T03:13:43.293Z,93.20
2019-03-19T03:16:11.588Z,93.10
2019-03-19T03:18:39.662Z,93.00
2019-03-19T03:21:07.603Z,93.10
2019-03-19T03:23:35.599Z,92.70
2019-03-19T03:26:03.754Z,92.90
2019-03-19T03:28:32.857Z,93.00
2019-03-19T03:31:00.793Z,92.80
2019-03-19T03:33:28.982Z,93.30
2019-03-19T03:35:56.912Z,93.80
2019-03-19T03:38:24.964Z,94.00
2019-03-19T03:40:52.918Z,94.20
2019-03-19T03:43:20.843Z,94.20
2019-03-19T03:45:48.882Z,94.40
2019-03-19T03:48:16.885Z,94.60
2019-03-19T03:50:44.857Z,94.70
2019-03-19T03:53:12.861Z,94.40
2019-03-19T03:55:40.925Z,94.20
2019-03-19T03:58:08.964Z,94.10
2019-03-19T04:00:36.918Z,94.20
2019-03-19T04:03:04.901Z,94.00
2019-03-19T04:05:32.874Z,94.10
2019-03-19T04:08:00.757Z,94.10
2019-03-19T04:10:28.661Z,94.10
2019-03-19T04:12:56.575Z,94.10
2019-03-19T04:15:24.552Z,94.10
2019-03-19T04:17:52.582Z,94.20
2019-03-19T04:20:20.477Z,94.30
2019-03-19T04:22:48.237Z,94.50
2019-03-19T04:25:16.229Z,94.70
2019-03-19T04:27:44.216Z,94.80
2019-03-19T04:30:12.288Z,94.80
2019-03-19T04:32:41.307Z,94.90
2019-03-19T04:35:09.451Z,94.90
2019-03-19T04:37:37.296Z,95.00
2019-03-19T04:40:06.189Z,94.60
2019-03-19T04:42:34.110Z,94.60
2019-03-19T04:45:02.128Z,94.60
2019-03-19T04:47:30.007Z,94.70
2019-03-19T04:49:58.046Z,94.90
2019-03-19T04:52:25.977Z,94.90
2019-03-19T04:54:53.998Z,94.90
2019-03-19T04:57:27.116Z,94.60
2019-03-19T04:59:52.754Z,94.60
2019-03-19T05:02:20.761Z,94.70
2019-03-19T05:04:48.695Z,94.90
2019-03-19T05:07:16.573Z,94.90
2019-03-19T05:09:44.550Z,94.90
2019-03-19T05:12:12.513Z,94.70
2019-03-19T05:14:40.432Z,94.70
2019-03-19T05:17:08.441Z,95.20
2019-03-19T05:19:37.477Z,95.70
2019-03-19T05:22:05.347Z,95.90
2019-03-19T05:24:33.299Z,95.80
2019-03-19T05:27:01.532Z,95.80
2019-03-19T05:29:29.649Z,95.60
2019-03-19T05:31:57.560Z,95.50
2019-03-19T05:34:25.557Z,95.60
2019-03-19T05:36:53.615Z,95.80
2019-03-19T05:39:21.722Z,95.60
2019-03-19T05:41:49.840Z,95.60
2019-03-19T05:44:17.860Z,95.30
2019-03-19T05:46:45.810Z,95.20
2019-03-19T05:49:13.919Z,95.40
2019-03-19T05:51:41.890Z,95.70
2019-03-19T05:54:09.923Z,95.80
2019-03-19T05:56:38.124Z,95.80
2019-03-19T05:59:06.130Z,95.60
2019-03-19T06:01:34.247Z,95.60
2019-03-19T06:04:02.323Z,95.40
2019-03-19T06:06:30.340Z,95.00
2019-03-19T06:08:58.274Z,95.30
2019-03-19T06:11:26.325Z,95.50
2019-03-19T06:13:54.399Z,95.70
2019-03-19T06:16:22.454Z,95.50
2019-03-19T06:18:50.451Z,95.40
2019-03-19T06:21:18.482Z,95.10
2019-03-19T06:23:46.563Z,95.00
2019-03-19T06:26:15.044Z,95.00
2019-03-19T06:28:43.123Z,94.70
2019-03-19T06:31:11.150Z,94.40
2019-03-19T06:33:39.165Z,94.20
2019-03-19T06:36:07.367Z,94.30
2019-03-19T06:38:35.402Z,94.10
2019-03-19T06:41:03.509Z,94.10
2019-03-19T06:43:31.565Z,94.40
2019-03-19T06:45:59.668Z,94.10
2019-03-19T06:48:27.890Z,93.80
2019-03-19T06:50:56.391Z,93.60
2019-03-19T06:53:24.588Z,93.30
2019-03-19T06:55:52.690Z,92.70
2019-03-19T06:58:20.594Z,93.00
2019-03-19T07:00:48.598Z,92.60
2019-03-19T07:03:16.603Z,92.80
2019-03-19T07:05:44.726Z,92.80
2019-03-19T07:08:12.607Z,93.00
2019-03-19T07:10:40.594Z,93.00
2019-03-19T07:13:08.547Z,93.10
2019-03-19T07:15:37.402Z,92.80
2019-03-19T07:18:05.226Z,92.60
2019-03-19T07:20:33.367Z,92.30
2019-03-19T07:23:01.339Z,91.70
2019-03-19T07:25:29.443Z,91.50
2019-03-19T07:27:57.425Z,91.10
2019-03-19T07:30:26.686Z,90.40
2019-03-19T07:32:54.750Z,90.00
2019-03-19T07:35:22.844Z,90.10
2019-03-19T07:37:51.131Z,90.00
2019-03-19T07:40:19.112Z,88.50
2019-03-19T07:42:47.159Z,87.90
2019-03-19T07:45:15.708Z,88.30
2019-03-19T07:47:43.862Z,88.70
2019-03-19T07:50:13.188Z,87.50
2019-03-19T07:52:41.629Z,86.20
2019-03-19T07:55:09.725Z,87.20
2019-03-19T07:57:37.745Z,85.20
2019-03-19T08:00:06.859Z,85.00
2019-03-19T08:02:37.167Z,83.50
2019-03-19T08:05:06.471Z,82.70
2019-03-19T08:07:34.949Z,82.60
2019-03-19T08:10:03.502Z,82.50
2019-03-19T08:12:33.531Z,81.40
2019-03-19T08:15:01.421Z,79.10
2019-03-19T08:17:29.381Z,79.60
2019-03-19T08:19:57.450Z,78.80
2019-03-19T08:22:25.908Z,78.10
2019-03-19T08:24:53.922Z,77.40
2019-03-19T08:27:21.993Z,77.50
2019-03-19T08:29:50.822Z,77.20
2019-03-19T08:32:18.879Z,76.90
2019-03-19T08:34:46.913Z,76.30
2019-03-19T08:37:15.644Z,76.00
2019-03-19T08:39:43.611Z,75.40
2019-03-19T08:42:11.784Z,74.80
2019-03-19T08:44:39.842Z,74.80
2019-03-19T08:47:07.927Z,74.80
2019-03-19T08:49:35.875Z,75.10
2019-03-19T08:52:03.887Z,73.30
2019-03-19T08:54:32.531Z,71.60
2019-03-19T08:57:00.688Z,71.30
2019-03-19T08:59:28.682Z,68.50
2019-03-19T09:01:56.586Z,67.40
2019-03-19T09:04:24.785Z,67.00
2019-03-19T09:06:52.758Z,66.90
2019-03-19T09:09:20.701Z,68.70
2019-03-19T09:11:48.674Z,65.40
2019-03-19T09:14:16.687Z,65.90
2019-03-19T09:16:44.634Z,68.50
2019-03-19T09:19:12.674Z,62.30
2019-03-19T09:21:40.745Z,63.50
2019-03-19T09:24:08.709Z,61.10
2019-03-19T09:26:36.653Z,60.40
2019-03-19T09:29:04.567Z,59.20
2019-03-19T09:31:32.525Z,59.60
2019-03-19T09:34:00.506Z,59.20
2019-03-19T09:36:28.556Z,59.40
2019-03-19T09:38:56.481Z,58.20
2019-03-19T09:41:24.417Z,52.70
2019-03-19T09:43:53.534Z,51.60
2019-03-19T09:46:21.647Z,54.30
2019-03-19T09:48:49.913Z,51.70
2019-03-19T09:51:17.878Z,49.80
2019-03-19T09:53:45.797Z,48.10
2019-03-19T09:56:13.705Z,49.80
2019-03-19T09:58:41.852Z,50.70
2019-03-19T10:01:09.765Z,45.70
2019-03-19T10:03:37.754Z,44.40
2019-03-19T10:06:13.905Z,44.10
2019-03-19T10:08:35.597Z,43.90
2019-03-19T10:11:03.527Z,43.20
2019-03-19T10:13:31.457Z,43.50
2019-03-19T10:15:59.405Z,41.70
2019-03-19T10:18:27.388Z,43.70
2019-03-19T10:20:55.293Z,43.30
2019-03-19T10:23:23.330Z,42.90
2019-03-19T10:25:51.440Z,41.80
2019-03-19T10:28:19.688Z,40.80
2019-03-19T10:30:47.738Z,40.10
2019-03-19T10:33:16.603Z,40.30
2019-03-19T10:35:44.854Z,38.10
2019-03-19T10:38:13.082Z,35.40
2019-03-19T10:40:41.082Z,36.00
2019-03-19T10:43:09.240Z,35.90
2019-03-19T10:45:38.013Z,34.30
2019-03-19T10:48:06.140Z,33.00
2019-03-19T10:50:34.299Z,33.60
2019-03-19T10:53:02.365Z,32.50
2019-03-19T10:55:30.435Z,32.60
2019-03-19T10:57:58.425Z,33.20
2019-03-19T11:00:26.615Z,31.40
2019-03-19T11:02:54.697Z,31.30
2019-03-19T11:05:24.089Z,33.10
2019-03-19T11:07:52.089Z,33.00
2019-03-19T11:10:20.209Z,32.30
2019-03-19T11:12:48.405Z,33.90
2019-03-19T11:15:17.491Z,35.80
2019-03-19T11:17:45.916Z,36.00
2019-03-19T11:20:15.678Z,35.90
2019-03-19T11:22:43.995Z,36.10
2019-03-19T11:25:13.356Z,37.70
2019-03-19T11:27:43.919Z,35.80
2019-03-19T11:30:17.707Z,33.50
2019-03-19T11:32:45.792Z,33.40
2019-03-19T11:35:14.080Z,34.60
2019-03-19T11:37:42.242Z,34.40
2019-03-19T11:40:11.169Z,34.90
2019-03-19T11:42:40.103Z,35.50
2019-03-19T11:45:09.060Z,34.40
2019-03-19T11:47:37.062Z,35.10
2019-03-19T11:50:12.138Z,34.00
2019-03-19T11:52:40.303Z,32.80
2019-03-19T11:55:08.538Z,32.20
2019-03-19T11:57:37.128Z,32.80
2019-03-19T12:00:11.438Z,32.60
2019-03-19T12:02:39.565Z,33.20
2019-03-19T12:05:09.252Z,33.20
2019-03-19T12:07:37.246Z,32.80
2019-03-19T12:10:05.889Z,30.00
2019-03-19T12:12:33.985Z,28.20
2019-03-19T12:15:01.954Z,28.00
2019-03-19T12:17:30.188Z,28.70
2019-03-19T12:19:58.101Z,27.90
2019-03-19T12:22:26.069Z,28.10
2019-03-19T12:24:54.066Z,26.90
2019-03-19T12:27:22.634Z,27.10
2019-03-19T12:29:50.680Z,27.20
2019-03-19T12:32:18.624Z,26.40
2019-03-19T12:34:46.637Z,26.70
2019-03-19T12:37:14.880Z,26.90
2019-03-19T12:39:42.896Z,27.10
2019-03-19T12:42:12.302Z,26.90
2019-03-19T12:44:40.415Z,26.80
2019-03-19T12:47:09.263Z,26.30
2019-03-19T12:49:37.207Z,26.50
2019-03-19T12:52:05.262Z,27.10
2019-03-19T12:54:33.389Z,27.10
2019-03-19T12:57:01.339Z,28.90
2019-03-19T12:59:29.819Z,29.30
2019-03-19T13:01:57.853Z,27.90
2019-03-19T13:04:25.873Z,28.30
2019-03-19T13:06:53.916Z,27.90
2019-03-19T13:09:22.000Z,27.60
2019-03-19T13:11:49.961Z,27.50
2019-03-19T13:14:17.903Z,27.90
2019-03-19T13:16:47.546Z,28.10
2019-03-19T13:19:15.903Z,27.90
2019-03-19T13:21:44.100Z,28.40
2019-03-19T13:24:12.066Z,28.40
2019-03-19T13:26:40.243Z,28.20
2019-03-19T13:29:10.435Z,27.10
2019-03-19T13:31:39.761Z,27.40
2019-03-19T13:34:08.369Z,27.20
2019-03-19T13:36:38.233Z,26.60
2019-03-19T13:39:07.653Z,27.50
2019-03-19T13:41:36.176Z,27.70
2019-03-19T13:44:04.503Z,27.60
2019-03-19T13:46:32.637Z,27.30
2019-03-19T13:49:00.617Z,27.00
2019-03-19T13:51:28.649Z,27.00
2019-03-19T13:53:56.690Z,26.80
2019-03-19T13:56:24.911Z,26.70
2019-03-19T13:58:53.144Z,27.00
2019-03-19T14:01:21.242Z,26.90
2019-03-19T14:03:49.255Z,27.30
2019-03-19T14:06:17.294Z,28.30
2019-03-19T14:08:45.662Z,28.90
2019-03-19T14:11:13.812Z,29.30
2019-03-19T14:13:41.788Z,28.50
2019-03-19T14:16:11.740Z,28.40
2019-03-19T14:18:39.824Z,28.50
2019-03-19T14:21:08.767Z,29.00
2019-03-19T14:23:36.927Z,28.60
2019-03-19T14:26:05.118Z,29.00
2019-03-19T14:28:33.121Z,29.00
2019-03-19T14:31:08.583Z,28.50
2019-03-19T14:33:31.419Z,28.20
2019-03-19T14:35:59.659Z,27.80
2019-03-19T14:38:27.710Z,28.00
2019-03-19T14:40:55.743Z,28.70
2019-03-19T14:43:23.851Z,29.00
2019-03-19T14:45:52.389Z,28.30
2019-03-19T14:48:20.854Z,26.90
2019-03-19T14:50:49.073Z,26.80
2019-03-19T14:53:17.281Z,26.50
2019-03-19T14:55:45.465Z,24.00
2019-03-19T14:58:13.539Z,23.60
2019-03-19T15:00:41.577Z,23.20
2019-03-19T15:03:09.904Z,21.40
2019-03-19T15:05:38.079Z,20.30
2019-03-19T15:08:06.364Z,19.70
2019-03-19T15:10:34.569Z,19.70
2019-03-19T15:13:02.790Z,18.70
2019-03-19T15:15:30.986Z,18.70
2019-03-19T15:17:59.140Z,18.80
2019-03-19T15:20:27.510Z,19.20
2019-03-19T15:22:55.732Z,20.20
2019-03-19T15:25:23.859Z,19.50
2019-03-19T15:27:51.945Z,19.60
2019-03-19T15:30:20.147Z,19.90
2019-03-19T15:32:48.307Z,20.20
2019-03-19T15:35:16.495Z,19.50
2019-03-19T15:37:44.997Z,18.80
2019-03-19T15:40:13.385Z,18.30
2019-03-19T15:42:41.861Z,17.50
2019-03-19T15:45:10.764Z,17.20
2019-03-19T15:47:38.956Z,16.20
2019-03-19T15:50:10.716Z,16.70
2019-03-19T15:52:38.860Z,16.60
2019-03-19T15:55:07.215Z,17.10
2019-03-19T15:57:35.429Z,18.50
2019-03-19T16:00:06.309Z,21.10
2019-03-19T16:02:34.950Z,22.60
2019-03-19T16:05:05.025Z,23.70
2019-03-19T16:07:33.166Z,24.80
2019-03-19T16:10:02.078Z,24.40
2019-03-19T16:12:30.322Z,25.20
2019-03-19T16:14:58.345Z,25.60
2019-03-19T16:17:26.574Z,25.30
2019-03-19T16:19:54.582Z,25.60
2019-03-19T16:22:22.635Z,25.20
2019-03-19T16:24:50.577Z,24.70
2019-03-19T16:27:19.320Z,25.40
2019-03-19T16:29:48.866Z,25.00
2019-03-19T16:32:17.530Z,24.50
2019-03-19T16:34:45.690Z,24.90
2019-03-19T16:37:13.818Z,25.40
2019-03-19T16:39:42.170Z,24.90
2019-03-19T16:42:10.269Z,25.30
2019-03-19T16:44:38.355Z,25.10
2019-03-19T16:47:06.676Z,25.50
2019-03-19T16:49:34.735Z,26.00
2019-03-19T16:52:02.857Z,25.40
2019-03-19T16:54:31.005Z,25.30
2019-03-19T16:56:59.720Z,26.00
2019-03-19T16:59:28.338Z,27.10
2019-03-19T17:02:01.734Z,27.20
2019-03-19T17:04:26.775Z,28.00
2019-03-19T17:06:55.010Z,28.90
2019-03-19T17:09:23.070Z,29.60
2019-03-19T17:11:51.112Z,30.20
2019-03-19T17:14:19.257Z,30.10
2019-03-19T17:16:47.363Z,30.30
2019-03-19T17:19:15.515Z,30.90
2019-03-19T17:21:43.626Z,30.60
2019-03-19T17:24:11.824Z,30.80
2019-03-19T17:26:39.995Z,32.40
2019-03-19T17:29:08.204Z,33.20
2019-03-19T17:31:36.335Z,33.80
2019-03-19T17:34:04.418Z,33.80
2019-03-19T17:36:32.486Z,33.30
2019-03-19T17:39:00.752Z,34.50
2019-03-19T17:41:30.812Z,34.10
2019-03-19T17:43:58.953Z,35.10
2019-03-19T17:46:27.007Z,35.20
2019-03-19T17:48:55.233Z,36.60
2019-03-19T17:51:23.422Z,35.00
2019-03-19T17:53:51.620Z,35.70
2019-03-19T17:56:21.835Z,36.60
2019-03-19T17:58:50.003Z,36.80
2019-03-19T18:01:18.267Z,39.30
2019-03-19T18:03:46.320Z,38.10
2019-03-19T18:06:14.432Z,37.80
2019-03-19T18:08:42.790Z,38.00
2019-03-19T18:11:11.088Z,38.60
2019-03-19T18:13:39.244Z,39.50
2019-03-19T18:16:07.464Z,41.30
2019-03-19T18:18:35.725Z,41.60
2019-03-19T18:21:04.366Z,41.80
2019-03-19T18:23:32.443Z,41.90
2019-03-19T18:26:00.550Z,42.30
2019-03-19T18:28:28.727Z,43.30
2019-03-19T18:30:56.950Z,44.20
2019-03-19T18:33:25.144Z,45.30
2019-03-19T18:35:56.279Z,44.60
2019-03-19T18:38:23.948Z,44.50
2019-03-19T18:40:52.206Z,43.60
2019-03-19T18:43:21.284Z,43.00
2019-03-19T18:45:49.546Z,45.30
2019-03-19T18:48:17.697Z,45.70
2019-03-19T18:50:45.791Z,47.70
2019-03-19T18:53:14.002Z,48.00
2019-03-19T18:55:42.133Z,48.20
2019-03-19T18:58:10.295Z,48.70
2019-03-19T19:00:38.363Z,48.20
2019-03-19T19:03:06.730Z,49.30
2019-03-19T19:05:34.935Z,50.00
2019-03-19T19:08:02.975Z,50.00
2019-03-19T19:10:31.106Z,50.00
2019-03-19T19:12:59.309Z,50.50
2019-03-19T19:15:27.384Z,49.90
2019-03-19T19:17:57.569Z,50.10
2019-03-19T19:20:26.600Z,50.60
2019-03-19T19:22:54.791Z,51.50
2019-03-19T19:25:22.924Z,52.40
2019-03-19T19:27:51.028Z,52.60
2019-03-19T19:30:19.140Z,53.10
2019-03-19T19:32:47.605Z,53.80
2019-03-19T19:35:15.753Z,55.10
2019-03-19T19:37:43.907Z,55.50
2019-03-19T19:40:13.152Z,56.60
2019-03-19T19:42:41.630Z,56.60
2019-03-19T19:45:11.586Z,56.70
2019-03-19T19:47:40.481Z,56.70
2019-03-19T19:50:10.760Z,56.70
2019-03-19T19:52:38.927Z,56.80
2019-03-19T19:55:08.773Z,57.70
2019-03-19T19:57:37.082Z,58.10
2019-03-19T20:00:07.670Z,58.10
2019-03-19T20:02:35.836Z,57.80
2019-03-19T20:05:04.652Z,57.90
2019-03-19T20:07:32.669Z,58.10
2019-03-19T20:10:01.070Z,58.60
2019-03-19T20:12:29.658Z,59.10
2019-03-19T20:14:58.040Z,58.80
2019-03-19T20:17:27.133Z,59.00
2019-03-19T20:19:55.349Z,58.90
2019-03-19T20:22:23.814Z,59.10
2019-03-19T20:24:54.113Z,59.20
2019-03-19T20:27:22.432Z,59.50
2019-03-19T20:29:50.591Z,59.10
2019-03-19T20:32:18.835Z,59.60
2019-03-19T20:34:47.041Z,60.90
2019-03-19T20:37:15.408Z,61.00
2019-03-19T20:39:43.647Z,60.80
2019-03-19T20:42:12.900Z,61.70
2019-03-19T20:44:40.964Z,61.90
2019-03-19T20:47:09.258Z,61.50
2019-03-19T20:49:47.165Z,61.20
2019-03-19T20:52:07.794Z,61.10
2019-03-19T20:54:36.132Z,61.30
2019-03-19T20:57:04.501Z,61.80
2019-03-19T20:59:32.714Z,62.20
2019-03-19T21:02:00.938Z,62.30
2019-03-19T21:04:31.643Z,63.10
2019-03-19T21:06:59.018Z,63.90
2019-03-19T21:09:27.126Z,66.30
2019-03-19T21:11:56.155Z,67.80
2019-03-19T21:14:24.203Z,69.00
2019-03-19T21:16:52.464Z,66.90
2019-03-19T21:19:20.693Z,66.80
2019-03-19T21:21:48.697Z,67.60
2019-03-19T21:24:17.041Z,66.40
2019-03-19T21:26:45.375Z,65.70
2019-03-19T21:29:13.640Z,66.00
2019-03-19T21:31:41.759Z,67.80
2019-03-19T21:34:09.788Z,68.90
2019-03-19T21:36:37.897Z,69.30
2019-03-19T21:39:07.160Z,69.90
2019-03-19T21:41:35.178Z,69.00
2019-03-19T21:44:03.236Z,70.20
2019-03-19T21:46:31.450Z,71.40
2019-03-19T21:48:59.577Z,71.20
2019-03-19T21:51:28.600Z,71.40
2019-03-19T21:53:56.631Z,71.30
2019-03-19T21:56:24.871Z,71.40
2019-03-19T21:58:53.055Z,72.20
2019-03-19T22:01:21.003Z,73.00
2019-03-19T22:03:49.053Z,72.50
2019-03-19T22:06:17.307Z,72.50
2019-03-19T22:08:45.356Z,72.00
2019-03-19T22:11:13.579Z,72.20
2019-03-19T22:13:41.621Z,72.70
2019-03-19T22:16:09.800Z,72.40
2019-03-19T22:18:37.871Z,72.50
2019-03-19T22:21:05.906Z,72.40
2019-03-19T22:23:36.351Z,72.50
2019-03-19T22:26:04.332Z,72.40
2019-03-19T22:28:32.371Z,72.90
2019-03-19T22:31:00.359Z,72.90
2019-03-19T22:33:28.560Z,72.70
2019-03-19T22:35:56.564Z,73.60
2019-03-19T22:38:24.736Z,74.90
2019-03-19T22:40:52.765Z,75.60
2019-03-19T22:43:21.727Z,75.50
2019-03-19T22:45:49.760Z,75.70
2019-03-19T22:48:20.057Z,76.10
2019-03-19T22:50:48.945Z,76.40
2019-03-19T22:53:16.994Z,77.00
2019-03-19T22:55:45.071Z,76.50
2019-03-19T22:58:15.815Z,76.90
2019-03-19T23:00:49.845Z,77.40
2019-03-19T23:03:18.346Z,77.60
2019-03-19T23:05:46.303Z,77.90
2019-03-19T23:08:14.451Z,77.90
2019-03-19T23:10:42.475Z,77.50
2019-03-19T23:13:11.981Z,77.60
2019-03-19T23:15:40.099Z,78.00
2019-03-19T23:18:08.105Z,78.40
2019-03-19T23:20:36.244Z,78.90
2019-03-19T23:23:04.491Z,79.70
2019-03-19T23:25:32.428Z,80.60
2019-03-19T23:28:00.554Z,79.40
2019-03-19T23:30:28.662Z,78.80
2019-03-19T23:32:56.936Z,78.30
2019-03-19T23:35:25.056Z,78.00
2019-03-19T23:37:53.077Z,78.70
2019-03-19T23:40:22.156Z,78.80
2019-03-19T23:42:50.336Z,79.70
2019-03-19T23:45:18.510Z,79.50
2019-03-19T23:47:47.913Z,80.10
2019-03-19T23:50:15.872Z,80.60
2019-03-19T23:52:45.077Z,80.70
2019-03-19T23:55:14.278Z,80.70
2019-03-19T23:57:43.447Z,80.90
